Time;durP1;ratioP1;P1;durP2;ratioP2;P2;SDS_P1;SDS_P2;PMS_P1;PMS_P2;Temp;Humidity;BMP_temperature;BMP_pressure;BME280_temperature;BME280_humidity;BME280_pressure;Samples;Min_cycle;Max_cycle;Signal;HPM_P1;HPM_P2
2023/03/29 00:00:19;;;;;;;8.35;3.40;;;;;;;;;;4978774;28;20027;-71
2023/03/29 00:03:05;;;;;;;5.57;3.40;;;;;;;;;;4978510;28;20041;-72
2023/03/29 00:05:56;;;;;;;5.80;3.22;;;;;;;;;;4978573;28;20031;-70
2023/03/29 00:08:44;;;;;;;4.93;3.40;;;;;;;;;;4978363;28;20038;-71
2023/03/29 00:11:30;;;;;;;5.70;3.20;;;;;;;;;;4964102;28;20067;-71
2023/03/29 00:14:16;;;;;;;4.18;3.00;;;;;;;;;;4978417;28;20047;-70
2023/03/29 00:17:01;;;;;;;5.15;2.97;;;;;;;;;;4978376;28;20018;-71
2023/03/29 00:19:47;;;;;;;5.88;2.90;;;;;;;;;;4978613;28;20038;-71
2023/03/29 00:22:32;;;;;;;6.63;2.75;;;;;;;;;;4977854;28;20115;-71
2023/03/29 00:25:18;;;;;;;4.57;2.75;;;;;;;;;;4977994;28;20371;-71
2023/03/29 00:28:04;;;;;;;6.35;3.08;;;;;;;;;;4978222;28;20033;-71
2023/03/29 00:30:50;;;;;;;4.63;2.88;;;;;;;;;;4964314;28;20031;-72
2023/03/29 00:33:36;;;;;;;6.50;2.80;;;;;;;;;;4978737;28;20078;-71
2023/03/29 00:36:22;;;;;;;4.22;2.97;;;;;;;;;;4978130;28;20109;-71
2023/03/29 00:39:08;;;;;;;4.25;3.10;;;;;;;;;;4962874;28;20034;-72
2023/03/29 00:41:54;;;;;;;7.22;3.30;;;;;;;;;;4977675;28;20027;-71
2023/03/29 00:44:51;;;;;;;5.55;3.30;;;;;;;;;;4977512;28;20037;-70
2023/03/29 00:47:43;;;;;;;4.80;3.22;;;;;;;;;;4977720;28;20032;-74
2023/03/29 00:50:29;;;;;;;6.75;3.30;;;;;;;;;;4977648;28;20023;-73
2023/03/29 00:53:18;;;;;;;4.82;3.67;;;;;;;;;;4977557;28;20050;-73
2023/03/29 00:56:04;;;;;;;4.43;3.08;;;;;;;;;;4977889;28;20023;-72
2023/03/29 00:58:56;;;;;;;4.85;3.15;;;;;;;;;;4977730;28;20039;-72
2023/03/29 01:01:45;;;;;;;4.13;2.92;;;;;;;;;;4977573;28;20030;-73
2023/03/29 01:04:35;;;;;;;6.55;3.35;;;;;;;;;;4977582;28;20114;-73
2023/03/29 01:07:23;;;;;;;7.20;3.50;;;;;;;;;;4977157;28;20434;-73
2023/03/29 01:10:15;;;;;;;3.85;2.70;;;;;;;;;;4977254;28;20098;-72
2023/03/29 01:13:03;;;;;;;5.57;3.22;;;;;;;;;;4977335;28;20098;-72
2023/03/29 01:15:50;;;;;;;4.88;3.20;;;;;;;;;;4963596;28;20105;-72
2023/03/29 01:18:36;;;;;;;6.15;3.50;;;;;;;;;;4963601;28;20098;-71
2023/03/29 01:21:43;;;;;;;7.65;3.10;;;;;;;;;;4978265;28;20031;-71
2023/03/29 01:24:49;;;;;;;6.10;3.35;;;;;;;;;;4977783;28;20051;-71
2023/03/29 01:27:43;;;;;;;4.75;3.05;;;;;;;;;;4963313;28;20069;-72
2023/03/29 01:30:47;;;;;;;5.07;3.10;;;;;;;;;;4964157;28;20427;-71
2023/03/29 01:33:44;;;;;;;5.90;3.05;;;;;;;;;;4977857;28;20038;-72
2023/03/29 01:36:35;;;;;;;4.80;3.05;;;;;;;;;;4978019;28;20109;-71
2023/03/29 01:39:21;;;;;;;7.70;3.08;;;;;;;;;;4963377;28;20033;-72
2023/03/29 01:42:07;;;;;;;5.43;3.70;;;;;;;;;;4977655;28;20031;-75
2023/03/29 01:45:11;;;;;;;5.97;3.45;;;;;;;;;;4977296;28;20117;-73
2023/03/29 01:48:00;;;;;;;7.53;3.50;;;;;;;;;;4976955;28;20446;-72
2023/03/29 01:50:48;;;;;;;5.80;3.60;;;;;;;;;;4963390;28;20037;-72
2023/03/29 01:53:34;;;;;;;7.82;3.40;;;;;;;;;;4973564;28;20344;-72
2023/03/29 01:56:21;;;;;;;4.95;3.33;;;;;;;;;;4978118;28;20025;-74
2023/03/29 01:59:10;;;;;;;6.50;3.50;;;;;;;;;;4963045;28;20022;-74
2023/03/29 02:01:58;;;;;;;5.70;3.67;;;;;;;;;;4977466;28;20038;-73
2023/03/29 02:04:48;;;;;;;6.25;3.30;;;;;;;;;;4977219;28;20074;-73
2023/03/29 02:07:36;;;;;;;6.85;3.40;;;;;;;;;;4977265;28;20113;-72
2023/03/29 02:10:22;;;;;;;4.95;3.50;;;;;;;;;;4977166;28;20167;-71
2023/03/29 02:13:08;;;;;;;6.93;3.67;;;;;;;;;;4977175;28;20090;-72
2023/03/29 02:15:55;;;;;;;4.93;3.35;;;;;;;;;;4977207;28;20038;-71
2023/03/29 02:18:42;;;;;;;4.80;3.25;;;;;;;;;;4977669;28;20027;-72
2023/03/29 02:21:34;;;;;;;7.88;3.90;;;;;;;;;;4980667;28;20031;-70
2023/03/29 02:24:20;;;;;;;5.20;3.30;;;;;;;;;;4980564;28;20051;-73
2023/03/29 02:27:06;;;;;;;6.25;3.60;;;;;;;;;;4980169;28;20019;-74
2023/03/29 02:29:52;;;;;;;5.10;3.40;;;;;;;;;;4979884;28;20037;-73
2023/03/29 02:32:40;;;;;;;5.32;3.38;;;;;;;;;;4978547;28;20037;-72
2023/03/29 02:35:33;;;;;;;5.32;3.40;;;;;;;;;;4980232;28;20015;-73
2023/03/29 02:38:19;;;;;;;4.70;3.30;;;;;;;;;;4980103;28;20037;-73
2023/03/29 02:41:06;;;;;;;5.53;3.30;;;;;;;;;;4978476;28;20023;-74
2023/03/29 02:43:52;;;;;;;4.38;3.22;;;;;;;;;;4980038;28;20019;-73
2023/03/29 02:46:41;;;;;;;5.15;3.20;;;;;;;;;;4980090;28;20050;-72
2023/03/29 02:49:27;;;;;;;7.43;3.25;;;;;;;;;;4979565;28;20035;-74
2023/03/29 02:52:15;;;;;;;5.97;3.45;;;;;;;;;;4965783;28;20086;-70
2023/03/29 02:55:02;;;;;;;5.05;3.33;;;;;;;;;;4965429;28;20023;-72
2023/03/29 02:57:47;;;;;;;5.25;3.50;;;;;;;;;;4979901;28;20126;-72
2023/03/29 03:00:34;;;;;;;6.50;3.15;;;;;;;;;;4964244;28;20035;-71
2023/03/29 03:03:20;;;;;;;7.47;3.40;;;;;;;;;;4965162;28;20104;-71
2023/03/29 03:06:06;;;;;;;7.00;3.47;;;;;;;;;;4979748;28;20312;-73
2023/03/29 03:08:52;;;;;;;4.75;3.40;;;;;;;;;;4965353;28;20069;-71
2023/03/29 03:11:37;;;;;;;4.70;3.25;;;;;;;;;;4965298;28;20093;-71
2023/03/29 03:14:23;;;;;;;7.05;3.20;;;;;;;;;;4979801;28;20010;-70
2023/03/29 03:17:08;;;;;;;6.72;3.67;;;;;;;;;;4979048;28;20073;-71
2023/03/29 03:19:54;;;;;;;5.90;3.50;;;;;;;;;;4965037;28;20034;-71
2023/03/29 03:22:41;;;;;;;5.80;3.33;;;;;;;;;;4978972;28;20375;-70
2023/03/29 03:25:27;;;;;;;7.75;3.60;;;;;;;;;;4978991;28;20101;-71
2023/03/29 03:28:13;;;;;;;6.35;3.83;;;;;;;;;;4979190;28;20354;-71
2023/03/29 03:30:58;;;;;;;6.00;3.70;;;;;;;;;;4979865;28;20328;-71
2023/03/29 03:33:44;;;;;;;7.57;4.00;;;;;;;;;;4978720;28;20022;-70
2023/03/29 03:36:30;;;;;;;6.00;3.05;;;;;;;;;;4979274;28;20023;-71
2023/03/29 03:39:16;;;;;;;7.22;3.47;;;;;;;;;;4978760;28;20063;-71
2023/03/29 03:42:01;;;;;;;7.15;3.75;;;;;;;;;;4964586;28;20031;-70
2023/03/29 03:44:47;;;;;;;5.93;4.00;;;;;;;;;;4978701;28;20350;-71
2023/03/29 03:47:33;;;;;;;8.02;3.53;;;;;;;;;;4978436;28;20034;-71
2023/03/29 03:50:19;;;;;;;5.63;4.00;;;;;;;;;;4978623;28;20019;-71
2023/03/29 03:53:05;;;;;;;6.82;3.75;;;;;;;;;;4964177;28;20384;-71
2023/03/29 03:55:53;;;;;;;5.28;3.78;;;;;;;;;;4964313;28;20026;-72
2023/03/29 03:58:38;;;;;;;6.70;3.70;;;;;;;;;;4964311;28;20027;-71
2023/03/29 04:01:26;;;;;;;7.60;3.67;;;;;;;;;;4963793;28;20069;-72
2023/03/29 04:04:11;;;;;;;5.72;3.63;;;;;;;;;;4978356;28;20038;-71
2023/03/29 04:07:01;;;;;;;7.07;3.78;;;;;;;;;;4975018;28;20134;-72
2023/03/29 04:09:47;;;;;;;6.95;3.58;;;;;;;;;;4977747;28;20054;-70
2023/03/29 04:12:33;;;;;;;5.82;3.78;;;;;;;;;;4977193;28;20058;-71
2023/03/29 04:15:19;;;;;;;5.15;3.38;;;;;;;;;;4976952;28;20439;-71
2023/03/29 04:18:06;;;;;;;7.00;3.67;;;;;;;;;;4978119;28;20030;-71
2023/03/29 04:20:51;;;;;;;5.32;3.50;;;;;;;;;;4978387;28;20033;-72
2023/03/29 04:23:37;;;;;;;7.95;3.50;;;;;;;;;;4995912;28;20488;-70
2023/03/29 04:26:22;;;;;;;5.00;3.50;;;;;;;;;;5002977;28;20081;-72
2023/03/29 04:29:08;;;;;;;6.10;3.50;;;;;;;;;;4982119;28;20058;-71
2023/03/29 04:31:55;;;;;;;5.75;3.50;;;;;;;;;;4996502;28;20026;-71
2023/03/29 04:34:40;;;;;;;6.65;3.55;;;;;;;;;;4996379;28;20018;-72
2023/03/29 04:37:26;;;;;;;9.13;3.30;;;;;;;;;;4959405;28;20078;-71
2023/03/29 04:40:13;;;;;;;6.38;3.40;;;;;;;;;;4958580;28;20055;-72
2023/03/29 04:42:59;;;;;;;7.28;3.97;;;;;;;;;;4969086;28;20019;-72
2023/03/29 04:45:45;;;;;;;10.80;4.70;;;;;;;;;;4945851;28;20027;-71
2023/03/29 04:48:32;;;;;;;8.65;3.60;;;;;;;;;;4944733;28;20041;-72
2023/03/29 04:51:18;;;;;;;11.68;3.70;;;;;;;;;;4944824;28;20035;-72
2023/03/29 04:54:04;;;;;;;5.90;3.75;;;;;;;;;;4957827;28;20015;-72
2023/03/29 04:56:51;;;;;;;6.43;3.90;;;;;;;;;;4944837;28;20185;-73
2023/03/29 04:59:36;;;;;;;8.52;4.10;;;;;;;;;;4957800;28;20363;-72
2023/03/29 05:02:22;;;;;;;8.82;4.28;;;;;;;;;;4958206;28;20027;-72
2023/03/29 05:05:08;;;;;;;10.23;4.10;;;;;;;;;;4957993;29;20027;-73
2023/03/29 05:07:54;;;;;;;7.18;4.50;;;;;;;;;;4958319;29;20019;-72
2023/03/29 05:10:42;;;;;;;5.55;3.38;;;;;;;;;;4958976;28;20397;-72
2023/03/29 05:13:28;;;;;;;11.52;3.80;;;;;;;;;;4945238;28;20019;-72
2023/03/29 05:16:14;;;;;;;5.93;3.33;;;;;;;;;;4944637;29;20086;-72
2023/03/29 05:19:00;;;;;;;9.07;4.78;;;;;;;;;;4958359;28;20329;-72
2023/03/29 05:21:46;;;;;;;7.75;4.32;;;;;;;;;;4958582;29;20023;-72
2023/03/29 05:24:31;;;;;;;8.13;3.90;;;;;;;;;;4940145;28;20060;-72
2023/03/29 05:27:17;;;;;;;7.18;4.45;;;;;;;;;;4939547;29;20054;-73
2023/03/29 05:30:03;;;;;;;9.20;4.07;;;;;;;;;;4925161;29;20034;-72
2023/03/29 05:32:49;;;;;;;8.20;3.10;;;;;;;;;;4952280;28;20381;-72
2023/03/29 05:35:35;;;;;;;7.65;3.53;;;;;;;;;;4940178;28;20352;-72
2023/03/29 05:38:20;;;;;;;6.28;4.50;;;;;;;;;;4952665;28;20023;-72
2023/03/29 05:41:06;;;;;;;7.53;3.45;;;;;;;;;;4940178;29;20024;-72
2023/03/29 05:43:51;;;;;;;6.78;3.58;;;;;;;;;;4939997;28;20023;-72
2023/03/29 05:46:37;;;;;;;7.28;4.20;;;;;;;;;;4940439;28;20027;-74
2023/03/29 05:49:23;;;;;;;6.18;3.22;;;;;;;;;;4925072;29;20056;-72
2023/03/29 05:52:08;;;;;;;5.95;3.55;;;;;;;;;;4939389;29;20031;-73
2023/03/29 05:54:54;;;;;;;6.40;3.47;;;;;;;;;;4941471;29;20079;-72
2023/03/29 05:57:40;;;;;;;5.07;3.53;;;;;;;;;;4942828;29;20034;-72
2023/03/29 06:00:26;;;;;;;5.97;3.30;;;;;;;;;;4943235;28;20019;-71
2023/03/29 06:03:17;;;;;;;5.40;3.75;;;;;;;;;;4943022;29;20400;-73
2023/03/29 06:06:03;;;;;;;8.00;3.72;;;;;;;;;;4955589;28;20036;-73
2023/03/29 06:08:49;;;;;;;5.60;3.92;;;;;;;;;;4942798;28;20024;-71
2023/03/29 06:11:35;;;;;;;8.02;3.63;;;;;;;;;;4942041;28;20031;-72
2023/03/29 06:14:22;;;;;;;6.50;3.50;;;;;;;;;;4942517;28;20444;-72
2023/03/29 06:17:07;;;;;;;6.30;3.50;;;;;;;;;;4942294;28;20133;-71
2023/03/29 06:19:53;;;;;;;7.88;4.20;;;;;;;;;;4941697;29;20027;-71
2023/03/29 06:22:39;;;;;;;8.13;4.10;;;;;;;;;;4945231;29;20135;-72
2023/03/29 06:25:25;;;;;;;7.38;4.22;;;;;;;;;;4960167;28;20106;-72
2023/03/29 06:28:11;;;;;;;5.15;3.70;;;;;;;;;;4959708;29;20403;-71
2023/03/29 06:31:00;;;;;;;13.65;4.47;;;;;;;;;;4960910;28;20441;-71
2023/03/29 06:33:46;;;;;;;6.25;3.97;;;;;;;;;;4961902;28;20019;-72
2023/03/29 06:36:33;;;;;;;6.75;3.78;;;;;;;;;;4974203;28;20023;-73
2023/03/29 06:39:19;;;;;;;6.40;3.70;;;;;;;;;;4960228;29;20023;-72
2023/03/29 06:42:05;;;;;;;8.43;4.18;;;;;;;;;;4947065;28;20042;-73
2023/03/29 06:44:51;;;;;;;7.40;3.90;;;;;;;;;;4948485;28;20042;-72
2023/03/29 06:47:36;;;;;;;6.90;4.10;;;;;;;;;;4962120;28;20023;-73
2023/03/29 06:50:23;;;;;;;8.52;3.80;;;;;;;;;;4960741;29;20019;-72
2023/03/29 06:53:09;;;;;;;6.70;3.85;;;;;;;;;;4961482;28;20030;-71
2023/03/29 06:55:54;;;;;;;5.22;3.60;;;;;;;;;;4986037;28;20046;-71
2023/03/29 06:58:40;;;;;;;7.70;3.75;;;;;;;;;;4961712;29;20078;-71
2023/03/29 07:01:25;;;;;;;4.93;3.70;;;;;;;;;;4962068;28;20480;-72
2023/03/29 07:04:11;;;;;;;6.00;3.80;;;;;;;;;;4961230;28;20046;-72
2023/03/29 07:07:04;;;;;;;8.70;4.38;;;;;;;;;;4963781;28;20037;-73
2023/03/29 07:09:54;;;;;;;7.38;4.30;;;;;;;;;;4963119;28;20023;-73
2023/03/29 07:12:39;;;;;;;9.35;4.68;;;;;;;;;;4964349;28;20440;-72
2023/03/29 07:15:26;;;;;;;10.50;4.90;;;;;;;;;;4962745;28;20038;-72
2023/03/29 07:18:11;;;;;;;7.60;4.30;;;;;;;;;;4961019;28;20023;-72
2023/03/29 07:20:57;;;;;;;6.93;3.90;;;;;;;;;;4959636;28;20345;-72
2023/03/29 07:23:43;;;;;;;7.38;4.30;;;;;;;;;;4960268;28;20135;-72
2023/03/29 07:26:29;;;;;;;4.57;3.50;;;;;;;;;;4962382;28;20031;-73
2023/03/29 07:29:15;;;;;;;7.63;4.50;;;;;;;;;;4961309;28;20034;-72
2023/03/29 07:32:00;;;;;;;11.27;6.40;;;;;;;;;;4961141;28;20027;-73
2023/03/29 07:34:47;;;;;;;12.50;6.18;;;;;;;;;;4959285;29;20050;-72
2023/03/29 07:37:34;;;;;;;19.52;4.00;;;;;;;;;;4960991;28;20038;-71
2023/03/29 07:40:22;;;;;;;6.45;3.50;;;;;;;;;;4959589;28;20079;-73
2023/03/29 07:43:08;;;;;;;6.22;3.20;;;;;;;;;;4960749;28;20019;-72
2023/03/29 07:45:54;;;;;;;6.07;3.58;;;;;;;;;;4959650;28;20015;-73
2023/03/29 07:48:40;;;;;;;9.50;3.42;;;;;;;;;;4973948;28;20023;-72
2023/03/29 07:51:26;;;;;;;9.82;3.25;;;;;;;;;;4960277;28;20392;-74
2023/03/29 07:54:11;;;;;;;8.57;3.83;;;;;;;;;;4961000;28;20024;-72
2023/03/29 07:56:57;;;;;;;9.63;3.63;;;;;;;;;;4946207;28;20039;-72
2023/03/29 07:59:42;;;;;;;14.25;3.80;;;;;;;;;;4959241;28;20138;-73
2023/03/29 08:02:28;;;;;;;4.78;3.58;;;;;;;;;;4959681;28;20075;-73
2023/03/29 08:05:14;;;;;;;8.93;3.88;;;;;;;;;;4971769;28;20031;-73
2023/03/29 08:08:00;;;;;;;5.32;3.70;;;;;;;;;;4958951;28;20030;-73
2023/03/29 08:10:45;;;;;;;4.90;3.17;;;;;;;;;;4946147;28;20388;-72
2023/03/29 08:13:31;;;;;;;4.65;3.00;;;;;;;;;;4958510;28;20397;-72
2023/03/29 08:16:17;;;;;;;4.45;3.10;;;;;;;;;;4945403;28;20186;-72
2023/03/29 08:19:02;;;;;;;4.78;2.90;;;;;;;;;;4959927;28;20058;-72
2023/03/29 08:21:48;;;;;;;8.20;3.05;;;;;;;;;;4946554;28;20034;-72
2023/03/29 08:24:33;;;;;;;8.48;2.55;;;;;;;;;;4941570;28;20044;-72
2023/03/29 08:27:20;;;;;;;4.15;2.70;;;;;;;;;;4940746;28;20154;-73
2023/03/29 08:30:07;;;;;;;5.18;3.53;;;;;;;;;;4941243;28;20377;-71
2023/03/29 08:32:53;;;;;;;6.55;3.28;;;;;;;;;;4940963;28;20023;-72
2023/03/29 08:35:38;;;;;;;5.60;3.20;;;;;;;;;;4941344;28;20032;-73
2023/03/29 08:38:24;;;;;;;5.13;2.60;;;;;;;;;;4940095;29;20110;-74
2023/03/29 08:41:21;;;;;;;7.25;2.78;;;;;;;;;;4939487;29;20027;-73
2023/03/29 08:44:12;;;;;;;8.63;3.10;;;;;;;;;;4940374;29;20028;-74
2023/03/29 08:47:00;;;;;;;5.97;2.70;;;;;;;;;;4939297;29;20070;-74
2023/03/29 08:49:48;;;;;;;9.60;2.83;;;;;;;;;;4939938;29;20075;-72
2023/03/29 08:52:40;;;;;;;5.05;2.97;;;;;;;;;;4940861;28;20425;-74
2023/03/29 08:55:27;;;;;;;8.88;3.10;;;;;;;;;;4953161;28;20385;-72
2023/03/29 08:58:18;;;;;;;7.15;2.80;;;;;;;;;;4925302;28;20028;-73
2023/03/29 09:01:05;;;;;;;7.45;2.65;;;;;;;;;;4939075;29;20027;-73
2023/03/29 09:04:11;;;;;;;4.45;2.45;;;;;;;;;;4953181;28;20039;-73
2023/03/29 09:06:57;;;;;;;8.02;3.00;;;;;;;;;;4939788;28;20035;-73
2023/03/29 09:09:43;;;;;;;3.85;2.70;;;;;;;;;;4940583;28;20051;-74
2023/03/29 09:12:33;;;;;;;3.45;2.38;;;;;;;;;;4938288;29;20032;-72
2023/03/29 09:15:37;;;;;;;2.53;1.98;;;;;;;;;;4939222;28;20012;-74
2023/03/29 09:18:34;;;;;;;3.92;2.40;;;;;;;;;;4938956;28;20349;-73
2023/03/29 09:21:25;;;;;;;3.90;2.20;;;;;;;;;;4942072;28;20110;-73
2023/03/29 09:24:14;;;;;;;6.78;3.10;;;;;;;;;;4970349;28;20425;-74
2023/03/29 09:27:04;;;;;;;10.10;3.45;;;;;;;;;;4945561;28;20023;-72
2023/03/29 09:30:03;;;;;;;5.57;3.10;;;;;;;;;;4962838;28;20054;-73
2023/03/29 09:32:55;;;;;;;5.05;3.28;;;;;;;;;;4962656;28;20019;-73
2023/03/29 09:35:44;;;;;;;7.32;2.97;;;;;;;;;;4948336;29;20031;-73
2023/03/29 09:38:30;;;;;;;3.63;2.97;;;;;;;;;;4961838;28;20031;-74
2023/03/29 09:41:29;;;;;;;5.10;2.88;;;;;;;;;;4974424;28;20058;-71
2023/03/29 09:44:17;;;;;;;16.02;3.13;;;;;;;;;;4962576;28;20035;-72
2023/03/29 09:47:21;;;;;;;18.80;3.03;;;;;;;;;;4962196;28;20448;-72
2023/03/29 09:50:07;;;;;;;14.68;4.32;;;;;;;;;;4961559;28;20439;-73
2023/03/29 09:52:53;;;;;;;7.75;2.72;;;;;;;;;;4961749;28;20111;-72
2023/03/29 09:55:39;;;;;;;8.20;3.20;;;;;;;;;;4961793;28;20023;-72
2023/03/29 09:58:26;;;;;;;3.67;2.83;;;;;;;;;;4961045;28;20439;-73
2023/03/29 10:01:14;;;;;;;4.32;2.95;;;;;;;;;;4961098;28;20030;-73
2023/03/29 10:04:00;;;;;;;3.95;3.17;;;;;;;;;;4947341;28;20015;-72
2023/03/29 10:06:48;;;;;;;6.05;3.30;;;;;;;;;;4960898;28;20027;-73
2023/03/29 10:09:34;;;;;;;4.22;3.05;;;;;;;;;;4961435;28;20035;-73
2023/03/29 10:12:19;;;;;;;5.20;3.70;;;;;;;;;;4961043;28;20109;-73
2023/03/29 10:15:05;;;;;;;3.53;2.75;;;;;;;;;;4960989;28;20027;-72
2023/03/29 10:17:56;;;;;;;4.00;2.70;;;;;;;;;;4960493;29;20050;-73
2023/03/29 10:20:41;;;;;;;3.08;2.67;;;;;;;;;;4961318;28;20034;-72
2023/03/29 10:23:31;;;;;;;3.67;2.78;;;;;;;;;;4960906;28;20431;-72
2023/03/29 10:26:23;;;;;;;3.72;2.45;;;;;;;;;;4960203;29;20023;-73
2023/03/29 10:29:11;;;;;;;6.78;2.53;;;;;;;;;;4959755;29;20353;-74
2023/03/29 10:31:56;;;;;;;5.65;2.63;;;;;;;;;;4961039;28;20062;-72
2023/03/29 10:34:42;;;;;;;4.70;2.53;;;;;;;;;;4959969;29;20050;-73
2023/03/29 10:37:28;;;;;;;5.15;2.47;;;;;;;;;;4961204;28;20046;-72
2023/03/29 10:40:22;;;;;;;4.22;2.58;;;;;;;;;;4960666;28;20011;-72
2023/03/29 10:43:13;;;;;;;3.35;2.60;;;;;;;;;;4961402;28;20031;-72
2023/03/29 10:46:18;;;;;;;4.05;2.65;;;;;;;;;;4959800;28;20023;-71
2023/03/29 10:49:08;;;;;;;10.45;2.38;;;;;;;;;;4961466;28;20094;-74
2023/03/29 10:51:57;;;;;;;3.70;2.40;;;;;;;;;;4959848;28;20451;-73
2023/03/29 10:54:43;;;;;;;5.15;2.83;;;;;;;;;;4972099;28;20023;-73
2023/03/29 10:57:40;;;;;;;5.18;2.60;;;;;;;;;;4960501;28;20107;-75
2023/03/29 11:00:25;;;;;;;6.97;3.03;;;;;;;;;;4960581;28;20051;-74
2023/03/29 11:03:23;;;;;;;6.40;3.30;;;;;;;;;;4961085;28;20055;-75
2023/03/29 11:06:18;;;;;;;5.32;2.70;;;;;;;;;;4961624;28;20035;-73
2023/03/29 11:09:17;;;;;;;6.18;3.22;;;;;;;;;;4959890;28;20035;-74
2023/03/29 11:12:17;;;;;;;8.93;2.55;;;;;;;;;;4960878;28;20089;-74
2023/03/29 11:15:09;;;;;;;12.52;3.10;;;;;;;;;;4960082;28;20031;-74
2023/03/29 11:18:06;;;;;;;3.47;2.90;;;;;;;;;;4960689;29;20031;-73
2023/03/29 11:21:11;;;;;;;4.15;2.67;;;;;;;;;;4959757;28;20321;-73
2023/03/29 11:23:56;;;;;;;5.13;2.40;;;;;;;;;;4946170;28;20069;-73
2023/03/29 11:26:52;;;;;;;3.28;2.15;;;;;;;;;;4961397;28;20179;-72
2023/03/29 11:29:38;;;;;;;5.82;2.60;;;;;;;;;;4959994;28;20070;-73
2023/03/29 11:32:30;;;;;;;3.35;2.17;;;;;;;;;;4959837;28;20028;-74
2023/03/29 11:35:18;;;;;;;5.32;2.10;;;;;;;;;;4972593;28;20030;-73
2023/03/29 11:38:12;;;;;;;5.72;2.40;;;;;;;;;;4960757;28;20031;-76
2023/03/29 11:41:17;;;;;;;2.85;2.10;;;;;;;;;;4960543;28;20023;-74
2023/03/29 11:44:15;;;;;;;2.85;2.28;;;;;;;;;;4974246;28;20031;-74
2023/03/29 11:47:03;;;;;;;3.83;2.25;;;;;;;;;;4961381;28;20031;-76
2023/03/29 11:49:53;;;;;;;2.63;2.10;;;;;;;;;;4949228;28;20038;-73
2023/03/29 11:53:00;;;;;;;3.85;2.28;;;;;;;;;;4971569;28;20027;-71
2023/03/29 11:55:46;;;;;;;3.55;2.55;;;;;;;;;;4959809;29;20421;-73
2023/03/29 11:58:34;;;;;;;3.80;2.50;;;;;;;;;;4959727;28;20063;-75
2023/03/29 12:01:40;;;;;;;4.10;2.30;;;;;;;;;;4945648;28;20427;-71
2023/03/29 12:04:28;;;;;;;5.20;2.30;;;;;;;;;;4959042;28;20031;-71
2023/03/29 12:07:17;;;;;;;3.45;2.30;;;;;;;;;;4959147;28;20027;-73
2023/03/29 12:10:15;;;;;;;2.92;2.15;;;;;;;;;;4983088;28;20055;-73
2023/03/29 12:13:06;;;;;;;2.42;2.10;;;;;;;;;;4945851;28;20019;-71
2023/03/29 12:15:58;;;;;;;2.85;2.00;;;;;;;;;;4959407;28;20324;-73
2023/03/29 12:18:46;;;;;;;3.17;2.22;;;;;;;;;;4958490;28;20356;-74
2023/03/29 12:21:34;;;;;;;2.33;1.90;;;;;;;;;;4958408;28;20097;-74
2023/03/29 12:24:19;;;;;;;4.05;2.13;;;;;;;;;;4958328;28;20098;-73
2023/03/29 12:27:24;;;;;;;3.30;2.20;;;;;;;;;;4959130;28;20102;-76
2023/03/29 12:30:28;;;;;;;3.55;2.33;;;;;;;;;;4972152;28;20106;-73
2023/03/29 12:33:32;;;;;;;5.03;2.17;;;;;;;;;;4959441;28;20163;-74
2023/03/29 12:36:44;;;;;;;4.75;2.47;;;;;;;;;;4970975;28;20026;-74
2023/03/29 12:39:31;;;;;;;4.18;2.63;;;;;;;;;;4943740;29;20035;-73
2023/03/29 12:42:21;;;;;;;5.20;2.42;;;;;;;;;;4956443;28;20050;-75
2023/03/29 12:45:12;;;;;;;3.95;2.38;;;;;;;;;;4958427;28;20019;-74
2023/03/29 12:47:58;;;;;;;3.97;2.67;;;;;;;;;;4957634;28;20031;-72
2023/03/29 12:51:00;;;;;;;3.03;2.33;;;;;;;;;;4958931;28;20085;-73
2023/03/29 12:53:47;;;;;;;3.22;2.30;;;;;;;;;;4966383;28;20041;-72
2023/03/29 12:56:41;;;;;;;2.75;2.33;;;;;;;;;;4968523;28;20047;-73
2023/03/29 12:59:26;;;;;;;8.98;2.95;;;;;;;;;;4961220;28;20075;-73
2023/03/29 13:02:16;;;;;;;4.80;2.55;;;;;;;;;;4956833;28;20035;-73
2023/03/29 13:05:04;;;;;;;3.88;2.40;;;;;;;;;;4958919;28;20162;-73
2023/03/29 13:07:50;;;;;;;3.38;2.20;;;;;;;;;;4956658;29;20031;-73
2023/03/29 13:10:39;;;;;;;7.40;2.42;;;;;;;;;;4957828;28;20085;-73
2023/03/29 13:13:35;;;;;;;4.18;2.17;;;;;;;;;;4958056;28;20019;-73
2023/03/29 13:16:28;;;;;;;3.45;2.15;;;;;;;;;;4957557;28;20027;-74
2023/03/29 13:19:13;;;;;;;2.92;1.90;;;;;;;;;;4958374;28;20038;-73
2023/03/29 13:22:05;;;;;;;3.33;2.30;;;;;;;;;;4957695;28;20027;-73
2023/03/29 13:25:09;;;;;;;2.60;2.10;;;;;;;;;;4956768;29;20047;-73
2023/03/29 13:27:59;;;;;;;3.20;1.90;;;;;;;;;;4958188;28;20059;-74
2023/03/29 13:30:44;;;;;;;4.05;2.25;;;;;;;;;;4957385;28;20035;-73
2023/03/29 13:33:54;;;;;;;5.53;2.50;;;;;;;;;;4958071;28;20028;-73
2023/03/29 13:36:39;;;;;;;2.75;1.90;;;;;;;;;;4957653;28;20535;-72
2023/03/29 13:39:30;;;;;;;3.83;2.20;;;;;;;;;;4969531;28;20324;-73
2023/03/29 13:42:18;;;;;;;6.45;2.22;;;;;;;;;;4944213;28;20054;-72
2023/03/29 13:45:19;;;;;;;3.22;2.80;;;;;;;;;;4957879;28;20043;-73
2023/03/29 13:48:23;;;;;;;3.45;2.20;;;;;;;;;;4968921;28;20031;-72
2023/03/29 13:51:12;;;;;;;3.53;2.05;;;;;;;;;;4943821;28;20110;-71
2023/03/29 13:54:01;;;;;;;3.10;2.30;;;;;;;;;;4958038;28;20031;-71
2023/03/29 13:56:51;;;;;;;5.20;2.35;;;;;;;;;;4943737;29;20019;-72
2023/03/29 13:59:46;;;;;;;3.30;2.00;;;;;;;;;;4957403;28;20031;-73
2023/03/29 14:02:36;;;;;;;5.97;2.10;;;;;;;;;;4968985;28;20023;-72
2023/03/29 14:05:32;;;;;;;3.10;1.95;;;;;;;;;;4966528;29;20027;-70
2023/03/29 14:08:24;;;;;;;3.08;2.10;;;;;;;;;;4984911;28;20030;-74
2023/03/29 14:11:16;;;;;;;7.05;2.50;;;;;;;;;;4961042;28;20153;-73
2023/03/29 14:14:04;;;;;;;4.70;2.60;;;;;;;;;;4962083;28;20062;-74
2023/03/29 14:16:49;;;;;;;3.92;2.10;;;;;;;;;;4978309;28;20455;-74
2023/03/29 14:19:36;;;;;;;3.90;2.22;;;;;;;;;;4978188;28;20035;-74
2023/03/29 14:22:22;;;;;;;2.40;2.00;;;;;;;;;;4979377;28;20408;-72
2023/03/29 14:25:12;;;;;;;3.58;2.28;;;;;;;;;;4965734;28;20022;-72
2023/03/29 14:27:58;;;;;;;7.05;2.47;;;;;;;;;;4984392;28;20034;-71
2023/03/29 14:30:45;;;;;;;5.45;2.13;;;;;;;;;;4986921;28;20077;-71
2023/03/29 14:33:36;;;;;;;5.22;2.33;;;;;;;;;;4965386;28;20015;-72
2023/03/29 14:36:23;;;;;;;4.68;2.35;;;;;;;;;;4978631;28;20101;-72
2023/03/29 14:39:20;;;;;;;3.70;2.20;;;;;;;;;;4981289;28;20357;-72
2023/03/29 14:42:10;;;;;;;2.88;2.35;;;;;;;;;;4998187;28;20030;-71
2023/03/29 14:44:57;;;;;;;4.05;2.50;;;;;;;;;;4987660;28;20431;-72
2023/03/29 14:47:44;;;;;;;5.15;2.38;;;;;;;;;;5011723;28;20026;-71
2023/03/29 14:50:30;;;;;;;5.90;2.53;;;;;;;;;;4997550;28;20033;-73
2023/03/29 14:53:20;;;;;;;3.78;2.70;;;;;;;;;;4998577;28;20019;-73
2023/03/29 14:56:10;;;;;;;7.90;3.70;;;;;;;;;;4997744;28;20406;-72
2023/03/29 14:58:55;;;;;;;5.65;2.85;;;;;;;;;;4998547;28;20036;-72
2023/03/29 15:01:44;;;;;;;4.72;2.67;;;;;;;;;;4998646;28;20041;-72
2023/03/29 15:04:33;;;;;;;4.60;2.95;;;;;;;;;;4997611;28;20026;-73
2023/03/29 15:07:21;;;;;;;4.50;2.78;;;;;;;;;;4979828;28;20113;-73
2023/03/29 15:10:07;;;;;;;6.18;2.65;;;;;;;;;;4979726;28;20022;-73
2023/03/29 15:12:54;;;;;;;4.25;3.13;;;;;;;;;;4978503;28;20042;-72
2023/03/29 15:15:40;;;;;;;4.07;2.15;;;;;;;;;;4991442;28;20034;-72
2023/03/29 15:18:29;;;;;;;7.20;2.67;;;;;;;;;;4979571;28;20031;-72
2023/03/29 15:21:16;;;;;;;5.47;2.85;;;;;;;;;;4978333;28;20508;-72
2023/03/29 15:24:02;;;;;;;5.28;3.10;;;;;;;;;;4977954;28;20069;-72
2023/03/29 15:26:58;;;;;;;4.70;2.60;;;;;;;;;;4964902;28;20046;-72
2023/03/29 15:29:46;;;;;;;3.63;2.60;;;;;;;;;;4977675;28;20395;-71
2023/03/29 15:32:33;;;;;;;4.00;2.80;;;;;;;;;;4978973;28;20023;-70
2023/03/29 15:35:22;;;;;;;6.65;3.63;;;;;;;;;;4979403;28;20053;-72
2023/03/29 15:38:09;;;;;;;5.38;2.55;;;;;;;;;;4978517;28;20023;-73
2023/03/29 15:40:55;;;;;;;5.30;2.78;;;;;;;;;;4977889;28;20046;-72
2023/03/29 15:43:41;;;;;;;5.32;2.65;;;;;;;;;;4977679;28;20037;-73
2023/03/29 15:46:27;;;;;;;3.83;2.80;;;;;;;;;;4977968;28;20110;-72
2023/03/29 15:49:13;;;;;;;4.82;2.60;;;;;;;;;;4964119;28;20050;-71
2023/03/29 15:51:58;;;;;;;6.35;2.58;;;;;;;;;;4979165;28;20027;-71
2023/03/29 15:54:44;;;;;;;7.00;2.63;;;;;;;;;;4979100;28;20352;-72
2023/03/29 15:57:30;;;;;;;3.90;2.58;;;;;;;;;;4978302;28;20023;-71
2023/03/29 16:00:16;;;;;;;3.65;2.47;;;;;;;;;;4983603;28;20394;-72
2023/03/29 16:03:02;;;;;;;7.13;2.80;;;;;;;;;;4990135;28;20050;-75
2023/03/29 16:05:47;;;;;;;10.02;3.65;;;;;;;;;;4981393;28;20057;-71
2023/03/29 16:08:33;;;;;;;8.25;3.05;;;;;;;;;;4996429;28;20034;-71
2023/03/29 16:11:18;;;;;;;4.95;2.90;;;;;;;;;;4997862;28;20018;-72
2023/03/29 16:14:21;;;;;;;9.25;2.80;;;;;;;;;;4979799;28;20399;-71
2023/03/29 16:17:07;;;;;;;6.07;2.75;;;;;;;;;;4978464;28;20548;-72
2023/03/29 16:19:53;;;;;;;9.07;2.92;;;;;;;;;;4978022;28;20527;-72
2023/03/29 16:22:38;;;;;;;5.53;3.10;;;;;;;;;;4978234;28;20348;-73
2023/03/29 16:25:24;;;;;;;8.13;3.58;;;;;;;;;;4978418;28;20359;-71
2023/03/29 16:28:09;;;;;;;5.65;3.80;;;;;;;;;;4977989;28;20030;-72
2023/03/29 16:30:55;;;;;;;6.40;3.58;;;;;;;;;;4976587;28;20027;-72
2023/03/29 16:33:40;;;;;;;6.85;4.35;;;;;;;;;;4978415;28;20019;-74
2023/03/29 16:36:27;;;;;;;9.50;4.82;;;;;;;;;;4974015;28;20031;-74
2023/03/29 16:39:12;;;;;;;7.30;4.13;;;;;;;;;;4996925;28;20026;-73
2023/03/29 16:41:58;;;;;;;11.73;4.68;;;;;;;;;;4996135;28;20402;-73
2023/03/29 16:44:44;;;;;;;8.07;3.95;;;;;;;;;;4995636;28;20022;-72
2023/03/29 16:47:30;;;;;;;6.32;3.72;;;;;;;;;;4997050;28;20109;-74
2023/03/29 16:50:17;;;;;;;7.53;4.20;;;;;;;;;;4996212;28;20030;-72